This is the latest recevied weather packets stored in our database for station/object YB2VNE-13. If no packets are shown the sender has not sent any weather packets the latest 1 day(s).
| Time | Temp. | Humidity | Pressure | Rain* | Wind** | Luminosity | Snow |
|---|---|---|---|---|---|---|---|
| 1778076701 | 28.33° C | 86% | 995 hPa | - | - | 0 W/m² | - |
| 1778076389 | 28.33° C | 86% | 995 hPa | - | - | 0 W/m² | - |
| 1778061199 | 30° C | 76% | 992 hPa | - | - | 0 W/m² | - |
| 1778058719 | 30.56° C | 74% | 992 hPa | - | - | 0 W/m² | - |
| 1778058409 | 30.56° C | 72% | 992 hPa | - | - | 0 W/m² | - |
| 1778057789 | 30.56° C | 72% | 991 hPa | - | - | 0 W/m² | - |
| 1778056549 | 31.11° C | 73% | 991 hPa | - | - | 0 W/m² | - |
| 1778055309 | 31.67° C | 60% | 991 hPa | - | - | 0 W/m² | - |
| 1778054689 | 31.67° C | 60% | 991 hPa | - | - | 0 W/m² | - |
| 1778054380 | 31.11° C | 59% | 991 hPa | - | - | 0 W/m² | - |
| 1778054069 | 31.11° C | 62% | 991 hPa | - | - | 0 W/m² | - |
| 1778053759 | 31.11° C | 63% | 991 hPa | - | - | 0 W/m² | - |
| 1778053449 | 31.11° C | 63% | 991 hPa | - | - | 0 W/m² | - |
| 1778053139 | 31.11° C | 64% | 991 hPa | - | - | 0 W/m² | - |
| 1778052829 | 31.11° C | 66% | 991 hPa | - | - | 0 W/m² | - |
| 1778052519 | 31.11° C | 66% | 991 hPa | - | - | 0 W/m² | - |
| 1778052209 | 31.11° C | 65% | 992 hPa | - | - | 0 W/m² | - |
| 1778051899 | 31.11° C | 65% | 992 hPa | - | - | 0 W/m² | - |
| 1778051589 | 31.11° C | 64% | 992 hPa | - | - | 0 W/m² | - |
| 1778051279 | 31.11° C | 64% | 992 hPa | - | - | 0 W/m² | - |
| 1778050969 | 30.56° C | 67% | 992 hPa | - | - | 0 W/m² | - |
| 1778050659 | 30.56° C | 66% | 992 hPa | - | - | 0 W/m² | - |
| 1778050349 | 31.11° C | 66% | 992 hPa | - | - | 0 W/m² | - |
| 1778050039 | 31.67° C | 63% | 992 hPa | - | - | 0 W/m² | - |
| 1778049729 | 31.11° C | 64% | 992 hPa | - | - | 0 W/m² | - |
* Rain since midnight (hover to see other rain measurements)
** Current wind speed in m/s (hover to see current wind gust speed)